Time;durP1;ratioP1;P1;durP2;ratioP2;P2;SDS_P1;SDS_P2;PMS_P1;PMS_P2;Temp;Humidity;BMP_temperature;BMP_pressure;BME280_temperature;BME280_humidity;BME280_pressure;Samples;Min_cycle;Max_cycle;Signal;HPM_P1;HPM_P2
2024/03/04 00:00:40;;;;;;;13.30;7.10;;;4.60;99.90;;;5.29;100.00;96906.38;4986456;28;20520;-77
2024/03/04 00:03:09;;;;;;;15.87;6.40;;;4.50;99.90;;;5.31;100.00;96910.38;4985292;28;20564;-78
2024/03/04 00:05:37;;;;;;;10.23;5.23;;;4.50;99.90;;;5.39;100.00;96919.84;4986454;28;20481;-78
2024/03/04 00:08:07;;;;;;;10.43;6.50;;;4.70;99.90;;;5.38;100.00;96915.66;4986686;28;20471;-78
2024/03/04 00:10:35;;;;;;;11.52;6.30;;;4.60;99.90;;;5.39;100.00;96925.84;4986495;28;20544;-77
2024/03/04 00:13:04;;;;;;;16.37;6.70;;;4.60;99.90;;;5.26;100.00;96932.66;4987573;28;20213;-78
2024/03/04 00:15:33;;;;;;;10.77;6.93;;;4.50;99.90;;;5.34;100.00;96941.16;4986180;28;20477;-78
2024/03/04 00:18:03;;;;;;;9.60;5.43;;;4.60;99.90;;;5.32;100.00;96945.69;4985748;28;20461;-78
2024/03/04 00:20:33;;;;;;;10.33;5.70;;;4.50;99.90;;;5.33;100.00;96956.88;4984722;28;20459;-77
2024/03/04 00:23:07;;;;;;;10.67;6.40;;;4.50;99.90;;;5.28;100.00;96961.78;4988651;28;20463;-77
2024/03/04 00:25:36;;;;;;;11.93;6.53;;;4.50;99.90;;;5.32;100.00;96973.38;4988981;28;21207;-78
2024/03/04 00:28:05;;;;;;;12.02;6.63;;;4.50;99.90;;;5.30;100.00;96971.00;4989513;28;20215;-78
2024/03/04 00:30:33;;;;;;;7.90;5.73;;;4.50;99.90;;;5.21;100.00;96977.25;4988307;28;20226;-78
2024/03/04 00:33:03;;;;;;;9.93;5.90;;;4.50;99.90;;;5.23;100.00;96980.47;4988707;28;20508;-78
2024/03/04 00:35:32;;;;;;;10.40;5.75;;;4.50;99.90;;;5.27;100.00;96981.72;4990075;28;20460;-78
2024/03/04 00:38:00;;;;;;;12.85;6.63;;;4.60;99.90;;;5.25;100.00;96983.66;4989174;28;20659;-78
2024/03/04 00:40:30;;;;;;;9.07;5.77;;;4.50;99.90;;;5.30;100.00;96983.16;4984657;28;20215;-78
2024/03/04 00:42:59;;;;;;;11.53;6.13;;;4.50;99.90;;;5.22;100.00;96986.63;4985593;28;20467;-78
2024/03/04 00:45:27;;;;;;;7.37;5.07;;;4.40;99.90;;;5.31;100.00;96987.34;4986106;28;20938;-78
2024/03/04 00:47:56;;;;;;;12.93;6.10;;;4.50;99.90;;;5.23;100.00;96992.63;4985430;28;20469;-78
2024/03/04 00:50:26;;;;;;;18.53;6.53;;;4.40;99.90;;;5.14;100.00;97001.47;4985251;28;20320;-78
2024/03/04 00:52:55;;;;;;;9.70;6.10;;;4.30;99.90;;;5.12;100.00;97009.41;4986158;28;20459;-77
2024/03/04 00:55:24;;;;;;;13.70;7.40;;;4.30;99.90;;;5.24;100.00;97002.78;4986339;28;20461;-78
2024/03/04 00:57:52;;;;;;;11.00;6.50;;;4.50;99.90;;;5.28;100.00;97008.41;4985467;28;20490;-78
2024/03/04 01:00:21;;;;;;;11.97;6.93;;;4.60;99.90;;;5.26;100.00;97007.81;4986004;28;20539;-78
2024/03/04 01:02:49;;;;;;;11.50;6.77;;;4.50;99.90;;;5.25;100.00;97013.97;4987311;28;20472;-78
2024/03/04 01:05:18;;;;;;;11.53;6.73;;;4.50;99.90;;;5.29;100.00;97010.84;4985376;28;20471;-77
2024/03/04 01:07:48;;;;;;;10.87;6.13;;;4.50;99.90;;;5.20;100.00;97017.09;4985691;28;20574;-77
2024/03/04 01:10:18;;;;;;;8.97;6.00;;;4.40;99.90;;;5.13;100.00;97023.19;4985869;28;20474;-77
2024/03/04 01:12:47;;;;;;;11.07;6.10;;;4.30;99.90;;;5.09;100.00;97030.50;4983190;28;20487;-77
2024/03/04 01:15:15;;;;;;;7.73;5.60;;;4.30;99.90;;;5.01;100.00;97033.97;4984773;28;20984;-78
2024/03/04 01:17:46;;;;;;;9.30;6.00;;;4.20;99.90;;;5.01;100.00;97044.34;4988773;28;20884;-79
2024/03/04 01:20:14;;;;;;;14.63;6.77;;;4.20;99.90;;;4.97;100.00;97037.91;4990050;28;20685;-78
2024/03/04 01:22:43;;;;;;;13.67;5.67;;;4.20;99.90;;;5.04;100.00;97046.56;4991140;28;20447;-77
2024/03/04 01:25:13;;;;;;;9.10;5.03;;;4.30;99.90;;;5.07;100.00;97053.19;4990687;28;20470;-78
2024/03/04 01:27:43;;;;;;;11.07;6.10;;;4.30;99.90;;;5.11;100.00;97056.22;4985578;28;20861;-78
2024/03/04 01:30:15;;;;;;;10.87;6.20;;;4.40;99.90;;;5.15;100.00;97060.06;4983901;28;20467;-78
2024/03/04 01:32:44;;;;;;;11.37;6.77;;;4.40;99.90;;;5.19;100.00;97054.38;4986720;28;21243;-78
2024/03/04 01:35:15;;;;;;;15.40;6.70;;;4.40;99.90;;;5.25;100.00;97061.41;4985115;28;20478;-77
2024/03/04 01:37:43;;;;;;;15.17;6.73;;;4.50;99.90;;;5.34;100.00;97072.53;4986234;28;20459;-78
2024/03/04 01:40:14;;;;;;;9.37;5.57;;;4.60;99.90;;;5.31;100.00;97075.47;4985188;28;20447;-78
2024/03/04 01:42:44;;;;;;;16.63;7.07;;;4.60;99.90;;;5.37;100.00;97080.75;4981288;28;20467;-78
2024/03/04 01:45:24;;;;;;;11.20;6.20;;;4.70;99.90;;;5.40;100.00;97066.63;4980836;28;20542;-78
2024/03/04 01:47:55;;;;;;;15.93;6.30;;;4.70;99.90;;;5.51;100.00;97074.75;4981423;28;20461;-78
2024/03/04 01:50:27;;;;;;;15.33;6.23;;;4.80;99.90;;;5.52;100.00;97067.75;4980638;28;20942;-78
2024/03/04 01:52:59;;;;;;;14.63;7.20;;;4.80;99.90;;;5.57;100.00;97068.84;4980580;28;20486;-77
2024/03/04 01:55:35;;;;;;;11.82;6.75;;;4.90;99.90;;;5.61;100.00;97071.06;4980131;28;20465;-77
2024/03/04 01:58:05;;;;;;;12.07;5.97;;;4.90;99.90;;;5.67;100.00;97078.94;4980747;28;20651;-78
2024/03/04 02:00:39;;;;;;;9.13;5.83;;;5.00;99.90;;;5.71;100.00;97069.81;4981538;28;20626;-78
2024/03/04 02:03:10;;;;;;;13.43;6.60;;;5.00;99.90;;;5.79;100.00;97074.09;4980311;28;20455;-78
2024/03/04 02:05:41;;;;;;;11.43;5.93;;;5.00;99.90;;;5.83;100.00;97075.34;4980691;28;20476;-79
2024/03/04 02:08:12;;;;;;;10.40;6.10;;;5.10;99.90;;;5.81;100.00;97074.72;4981383;28;20468;-77
2024/03/04 02:10:44;;;;;;;9.33;6.20;;;5.20;99.90;;;5.86;100.00;97075.03;4981042;28;20456;-78
2024/03/04 02:13:12;;;;;;;13.47;7.13;;;5.20;99.90;;;5.88;100.00;97067.84;4979254;28;20567;-78
2024/03/04 02:15:42;;;;;;;9.90;6.05;;;5.20;99.90;;;5.88;100.00;97075.63;4980103;28;20475;-78
2024/03/04 02:18:12;;;;;;;12.67;6.10;;;5.30;99.90;;;5.91;100.00;97080.47;4982855;28;20212;-78
2024/03/04 02:20:46;;;;;;;10.97;6.00;;;5.20;99.90;;;5.94;100.00;97083.50;4984817;28;20510;-78
2024/03/04 02:23:15;;;;;;;12.03;6.40;;;5.20;99.90;;;5.98;100.00;97086.53;4985174;28;20468;-78
2024/03/04 02:25:53;;;;;;;13.60;5.90;;;5.30;99.90;;;5.97;100.00;97083.13;4985227;28;20466;-78
2024/03/04 02:28:25;;;;;;;9.10;6.37;;;5.30;99.90;;;6.02;100.00;97082.59;4983809;28;20478;-78
2024/03/04 02:30:55;;;;;;;9.90;7.07;;;5.30;99.90;;;5.99;100.00;97081.16;4984916;28;20703;-78
2024/03/04 02:33:26;;;;;;;9.83;6.60;;;5.30;99.90;;;6.07;100.00;97083.63;4983806;28;21026;-78
2024/03/04 02:35:55;;;;;;;13.93;6.77;;;5.30;99.90;;;6.13;100.00;97076.94;4982801;28;20877;-78
2024/03/04 02:38:25;;;;;;;10.70;7.17;;;5.40;99.90;;;6.21;100.00;97083.81;4983673;28;21004;-78
2024/03/04 02:40:54;;;;;;;13.50;7.40;;;5.40;99.90;;;6.27;100.00;97077.88;4982085;28;20479;-78
2024/03/04 02:43:24;;;;;;;10.88;6.45;;;5.50;99.90;;;6.31;100.00;97085.13;4980612;28;20822;-78
2024/03/04 02:45:53;;;;;;;14.03;7.77;;;5.60;99.90;;;6.35;100.00;97085.56;4983511;28;20200;-78
2024/03/04 02:48:21;;;;;;;16.10;7.77;;;5.60;99.90;;;6.41;100.00;97085.63;4984706;28;21020;-79
2024/03/04 02:50:50;;;;;;;16.63;8.40;;;5.80;99.90;;;6.49;100.00;97093.28;4983498;28;20467;-78
2024/03/04 02:53:18;;;;;;;17.70;8.87;;;5.90;99.90;;;6.53;100.00;97102.31;4984431;28;21010;-78
2024/03/04 02:55:48;;;;;;;14.33;8.83;;;5.80;99.90;;;6.54;100.00;97103.13;4982192;28;20514;-78
2024/03/04 02:58:17;;;;;;;13.73;7.93;;;5.90;99.90;;;6.58;100.00;97109.56;4983129;28;20460;-78
2024/03/04 03:00:45;;;;;;;9.90;6.60;;;5.90;99.90;;;6.59;100.00;97106.75;4983236;28;20529;-78
2024/03/04 03:03:14;;;;;;;16.88;8.02;;;5.90;99.90;;;6.67;100.00;97115.41;4982947;28;20208;-78
2024/03/04 03:05:43;;;;;;;14.90;8.13;;;6.00;99.90;;;6.72;100.00;97118.28;4982345;28;20764;-78
2024/03/04 03:08:11;;;;;;;15.13;7.90;;;6.00;99.90;;;6.75;100.00;97123.09;4985062;28;20459;-78
2024/03/04 03:10:40;;;;;;;12.30;7.53;;;6.10;99.90;;;6.75;100.00;97117.91;4983446;28;20494;-78
2024/03/04 03:13:12;;;;;;;14.33;8.33;;;6.10;99.90;;;6.79;100.00;97129.53;4983653;28;21116;-78
2024/03/04 03:15:40;;;;;;;15.47;9.27;;;6.10;99.90;;;6.76;100.00;97122.94;4982685;28;21026;-78
2024/03/04 03:18:13;;;;;;;17.97;9.30;;;6.00;99.90;;;6.82;100.00;97135.16;4987389;28;20470;-78
2024/03/04 03:20:42;;;;;;;28.57;14.30;;;6.10;99.90;;;7.01;100.00;97133.75;4988096;28;20463;-78
2024/03/04 03:23:10;;;;;;;18.10;11.03;;;6.30;99.90;;;7.09;100.00;97134.41;4984827;28;20562;-78
2024/03/04 03:25:39;;;;;;;23.77;12.30;;;6.40;99.90;;;7.21;100.00;97133.91;4984542;28;21017;-77
2024/03/04 03:28:08;;;;;;;26.10;12.27;;;6.60;99.90;;;7.26;100.00;97134.94;4986074;28;20966;-77
2024/03/04 03:30:37;;;;;;;21.37;12.63;;;6.60;99.90;;;7.32;100.00;97131.59;4985696;28;21054;-78
2024/03/04 03:33:06;;;;;;;24.27;11.97;;;6.70;99.90;;;7.36;100.00;97126.78;4985555;28;20488;-78
2024/03/04 03:35:34;;;;;;;29.00;13.00;;;6.80;99.90;;;7.44;100.00;97134.47;4984722;28;20463;-78
2024/03/04 03:38:03;;;;;;;27.17;12.40;;;6.90;99.90;;;7.52;100.00;97131.72;4984305;28;20546;-78
2024/03/04 03:40:31;;;;;;;25.90;13.90;;;6.90;99.90;;;7.61;100.00;97140.97;4981977;28;20225;-78
2024/03/04 03:43:00;;;;;;;24.37;13.03;;;7.00;99.90;;;7.65;100.00;97142.22;4981107;28;20471;-78
2024/03/04 03:45:30;;;;;;;25.73;13.87;;;7.00;99.90;;;7.68;100.00;97136.63;4981970;28;20563;-78
2024/03/04 03:47:58;;;;;;;26.43;13.40;;;6.90;99.90;;;7.72;100.00;97124.84;4982429;28;20503;-78
2024/03/04 03:50:27;;;;;;;28.30;13.03;;;7.10;99.90;;;7.77;100.00;97132.09;4981131;28;20899;-78
2024/03/04 03:52:55;;;;;;;24.67;13.13;;;7.10;99.90;;;7.80;100.00;97126.50;4983551;28;20915;-77
2024/03/04 03:55:24;;;;;;;26.83;13.45;;;7.10;99.90;;;7.83;100.00;97126.09;4979744;28;20461;-78
2024/03/04 03:57:52;;;;;;;26.33;13.63;;;7.20;99.90;;;7.87;100.00;97129.94;4981624;28;20544;-78
2024/03/04 04:00:26;;;;;;;27.27;13.27;;;7.20;99.90;;;7.87;100.00;97140.34;4982285;28;21200;-78
2024/03/04 04:03:00;;;;;;;24.07;13.20;;;7.20;99.90;;;7.92;100.00;97137.94;4983099;28;20464;-78
2024/03/04 04:05:29;;;;;;;26.40;12.45;;;7.30;99.90;;;7.93;100.00;97135.16;4982546;28;20461;-79
2024/03/04 04:07:58;;;;;;;28.15;12.52;;;7.40;99.90;;;7.97;100.00;97136.41;4981971;28;20632;-78
2024/03/04 04:10:27;;;;;;;21.77;12.00;;;7.30;99.90;;;7.98;100.00;97139.81;4981654;28;20209;-78
2024/03/04 04:12:55;;;;;;;22.00;12.17;;;7.30;99.90;;;8.01;100.00;97137.63;4982261;28;20499;-78
2024/03/04 04:15:24;;;;;;;20.73;10.97;;;7.30;99.90;;;8.01;100.00;97142.81;4985561;28;20468;-78
2024/03/04 04:17:58;;;;;;;25.00;11.60;;;7.40;99.90;;;8.04;100.00;97136.44;4985865;28;21048;-78
2024/03/04 04:20:28;;;;;;;24.92;12.10;;;7.40;99.90;;;8.04;100.00;97144.25;4986425;28;20214;-79
2024/03/04 04:22:56;;;;;;;27.83;13.47;;;7.50;99.90;;;8.08;100.00;97137.66;4986224;28;20788;-78
2024/03/04 04:25:25;;;;;;;19.50;11.10;;;7.40;99.90;;;8.09;100.00;97145.25;4986723;28;21020;-78
2024/03/04 04:27:53;;;;;;;19.60;10.57;;;7.40;99.90;;;8.11;100.00;97147.69;4986073;28;20723;-78
2024/03/04 04:30:22;;;;;;;22.33;10.90;;;7.40;99.90;;;8.10;100.00;97148.66;4985663;28;20463;-78
2024/03/04 04:32:50;;;;;;;26.20;12.60;;;7.40;99.90;;;8.11;100.00;97155.47;4986044;28;20584;-79
2024/03/04 04:35:20;;;;;;;22.30;11.50;;;7.50;99.90;;;8.12;100.00;97157.09;4980359;28;20456;-78
2024/03/04 04:37:49;;;;;;;22.47;12.40;;;7.50;99.90;;;8.16;100.00;97166.09;4981277;28;20468;-78
2024/03/04 04:40:19;;;;;;;27.83;12.53;;;7.40;99.90;;;8.17;100.00;97157.31;4981676;28;20500;-78
2024/03/04 04:42:48;;;;;;;19.23;10.87;;;7.50;99.90;;;8.17;100.00;97162.50;4981386;28;20549;-77
2024/03/04 04:45:17;;;;;;;19.65;11.55;;;7.50;99.90;;;8.20;100.00;97166.53;4981644;28;21003;-78
2024/03/04 04:47:46;;;;;;;23.30;12.50;;;7.40;99.90;;;8.20;100.00;97156.91;4980792;28;20196;-78
2024/03/04 04:50:14;;;;;;;21.07;11.90;;;7.40;99.90;;;8.22;100.00;97162.75;4981702;28;20473;-78
2024/03/04 04:52:44;;;;;;;22.43;12.70;;;7.50;99.90;;;8.25;100.00;97164.97;4981634;28;20518;-78
2024/03/04 04:55:13;;;;;;;30.20;13.30;;;7.50;99.90;;;8.25;100.00;97164.97;4980989;28;20908;-78
2024/03/04 04:57:45;;;;;;;27.23;12.52;;;7.60;99.90;;;8.28;100.00;97175.03;4980368;28;20231;-79
2024/03/04 05:00:16;;;;;;;23.23;11.10;;;7.60;99.90;;;8.31;100.00;97169.41;4982023;28;20215;-78
2024/03/04 05:02:44;;;;;;;25.77;13.25;;;7.60;99.90;;;8.33;100.00;97177.84;4981879;28;20479;-78
2024/03/04 05:05:13;;;;;;;21.17;10.87;;;7.60;99.90;;;8.37;100.00;97180.84;4980838;28;20596;-78
2024/03/04 05:07:41;;;;;;;31.90;13.80;;;7.60;99.90;;;8.36;100.00;97185.28;4980351;28;20467;-78
2024/03/04 05:10:11;;;;;;;26.83;13.97;;;7.60;99.90;;;8.37;100.00;97189.47;4980765;28;20886;-78
2024/03/04 05:12:40;;;;;;;30.10;14.83;;;7.60;99.90;;;8.41;100.00;97185.50;4980470;28;20492;-78
2024/03/04 05:15:09;;;;;;;23.33;12.30;;;7.70;99.90;;;8.40;100.00;97194.28;4980653;28;20552;-78
2024/03/04 05:17:38;;;;;;;24.27;12.50;;;7.80;99.90;;;8.40;100.00;97199.50;4981626;28;20894;-78
2024/03/04 05:20:09;;;;;;;25.23;12.03;;;7.70;99.90;;;8.43;100.00;97204.34;4981780;28;20448;-78
2024/03/04 05:22:38;;;;;;;22.37;12.97;;;7.70;99.90;;;8.44;100.00;97205.94;4981098;28;20790;-78
2024/03/04 05:25:09;;;;;;;24.30;11.83;;;7.70;99.90;;;8.44;100.00;97215.56;4985981;28;20471;-78
2024/03/04 05:27:39;;;;;;;25.50;13.55;;;7.60;99.90;;;8.42;100.00;97213.16;4981209;28;20961;-78
2024/03/04 05:30:10;;;;;;;22.20;12.33;;;7.60;99.90;;;8.44;100.00;97221.56;4979444;28;20234;-78
2024/03/04 05:32:38;;;;;;;25.07;11.50;;;7.70;99.90;;;8.46;100.00;97230.00;4981656;28;20887;-78
2024/03/04 05:35:08;;;;;;;25.97;11.50;;;7.60;99.90;;;8.46;100.00;97230.00;4980716;28;20475;-78
2024/03/04 05:37:37;;;;;;;30.83;15.37;;;7.70;99.90;;;8.45;100.00;97238.81;4980555;28;20456;-78
2024/03/04 05:40:09;;;;;;;28.13;12.70;;;7.80;99.90;;;8.50;100.00;97239.03;4981091;28;20498;-78
2024/03/04 05:42:41;;;;;;;28.67;14.00;;;7.80;99.90;;;8.51;100.00;97242.44;4980934;28;20458;-78
2024/03/04 05:45:10;;;;;;;31.48;14.75;;;7.90;99.90;;;8.53;100.00;97246.47;4981296;28;20465;-78
2024/03/04 05:47:38;;;;;;;31.83;13.20;;;7.90;99.90;;;8.57;100.00;97249.50;4980461;28;20211;-78
2024/03/04 05:50:08;;;;;;;32.77;13.50;;;7.90;99.90;;;8.58;100.00;97258.91;4981450;28;20466;-78
2024/03/04 05:52:36;;;;;;;35.80;15.27;;;7.90;99.90;;;8.61;100.00;97262.94;4981280;28;21258;-78
2024/03/04 05:55:06;;;;;;;26.47;13.90;;;7.90;99.90;;;8.62;100.00;97269.75;4979916;28;20479;-78
2024/03/04 05:57:35;;;;;;;32.10;14.03;;;8.00;99.90;;;8.62;100.00;97273.16;4981217;28;21024;-78
2024/03/04 06:00:12;;;;;;;26.40;12.87;;;7.90;99.90;;;8.65;100.00;97275.38;4981418;28;20467;-79
2024/03/04 06:02:40;;;;;;;31.10;14.00;;;7.90;99.90;;;8.65;100.00;97283.19;4980559;28;20940;-78
2024/03/04 06:05:11;;;;;;;32.30;14.03;;;7.90;99.90;;;8.66;100.00;97291.81;4980285;28;20524;-78
2024/03/04 06:07:40;;;;;;;25.13;12.87;;;7.90;99.90;;;8.65;100.00;97290.19;4983501;28;20459;-78
2024/03/04 06:10:10;;;;;;;22.80;11.90;;;8.00;99.90;;;8.63;100.00;97297.41;4986416;28;20499;-78
2024/03/04 06:12:38;;;;;;;22.83;11.47;;;8.00;99.90;;;8.64;100.00;97302.44;4985233;28;20494;-78
2024/03/04 06:15:09;;;;;;;23.63;12.00;;;8.00;99.90;;;8.59;100.00;97308.22;4989770;28;20593;-78
2024/03/04 06:17:38;;;;;;;24.10;12.43;;;8.00;99.90;;;8.57;100.00;97315.44;4984065;28;20935;-78
2024/03/04 06:20:09;;;;;;;23.50;12.00;;;8.10;99.90;;;8.57;100.00;97310.22;4983257;28;20566;-79
2024/03/04 06:22:39;;;;;;;26.20;12.60;;;8.00;99.90;;;8.58;100.00;97317.03;4980850;28;20461;-79
2024/03/04 06:25:09;;;;;;;24.10;13.00;;;8.00;99.90;;;8.61;100.00;97318.44;4978463;28;20566;-79
2024/03/04 06:27:37;;;;;;;24.50;12.80;;;8.10;99.90;;;8.58;100.00;97311.81;4978240;28;20581;-78
2024/03/04 06:30:12;;;;;;;25.00;11.67;;;8.10;99.90;;;8.53;100.00;97326.44;4978571;28;21039;-78
2024/03/04 06:32:41;;;;;;;25.50;12.55;;;7.90;99.90;;;8.53;100.00;97327.25;4981210;28;20838;-78
2024/03/04 06:35:10;;;;;;;29.60;12.73;;;7.90;99.90;;;8.56;100.00;97336.47;4980517;28;20250;-85
2024/03/04 06:37:40;;;;;;;29.07;14.50;;;7.90;99.90;;;8.54;100.00;97336.66;4979707;28;20485;-79
2024/03/04 06:40:10;;;;;;;22.23;12.05;;;8.00;99.90;;;8.51;100.00;97334.44;4979060;28;20488;-79
2024/03/04 06:42:38;;;;;;;28.83;13.10;;;8.00;99.90;;;8.54;100.00;97339.25;4974164;28;20245;-78
2024/03/04 06:45:09;;;;;;;29.20;12.83;;;8.00;99.90;;;8.57;100.00;97345.91;4983266;28;20578;-78
2024/03/04 06:47:38;;;;;;;20.73;12.77;;;7.90;99.90;;;8.55;100.00;97348.69;4984608;28;21384;-78
2024/03/04 06:50:07;;;;;;;23.87;11.70;;;7.90;99.90;;;8.60;100.00;97350.75;4982908;28;20477;-78
2024/03/04 06:52:35;;;;;;;25.57;13.43;;;7.90;99.90;;;8.58;100.00;97348.31;4983799;28;20478;-79
2024/03/04 06:55:05;;;;;;;21.23;11.20;;;7.90;99.90;;;8.58;100.00;97340.50;4982842;28;20501;-79
2024/03/04 06:57:34;;;;;;;21.10;11.17;;;8.00;99.90;;;8.62;100.00;97355.75;4984934;28;20459;-79
2024/03/04 07:00:04;;;;;;;22.20;12.10;;;8.00;99.90;;;8.67;100.00;97361.19;4984856;28;20486;-79
2024/03/04 07:02:34;;;;;;;23.10;11.80;;;7.90;99.90;;;8.68;100.00;97353.16;4985235;28;20203;-79
2024/03/04 07:05:02;;;;;;;23.05;10.07;;;8.00;99.90;;;8.62;100.00;97356.56;4983365;28;20535;-79
2024/03/04 07:07:31;;;;;;;21.70;11.03;;;7.90;99.90;;;8.61;100.00;97356.75;4983637;28;20582;-79
2024/03/04 07:10:00;;;;;;;23.00;11.27;;;7.90;99.90;;;8.66;100.00;97356.97;4983170;28;20468;-79
2024/03/04 07:12:28;;;;;;;14.70;10.00;;;7.90;99.90;;;8.67;100.00;97361.19;4982249;28;20460;-79
2024/03/04 07:14:57;;;;;;;25.53;11.30;;;8.00;99.90;;;8.62;100.00;97368.78;4983086;28;20552;-79
2024/03/04 07:17:25;;;;;;;24.47;12.23;;;8.10;99.90;;;8.65;100.00;97363.16;4977570;28;20997;-82
2024/03/04 07:19:55;;;;;;;21.90;11.87;;;8.00;99.90;;;8.70;100.00;97371.22;4980743;28;20464;-79
2024/03/04 07:22:24;;;;;;;22.67;12.67;;;8.00;99.90;;;8.68;100.00;97368.81;4980773;28;20552;-80
2024/03/04 07:24:52;;;;;;;21.43;11.60;;;8.00;99.90;;;8.71;100.00;97378.06;4983841;28;20464;-80
2024/03/04 07:27:21;;;;;;;22.63;11.67;;;8.00;99.90;;;8.72;100.00;97385.69;4983114;28;20469;-80
2024/03/04 07:29:50;;;;;;;22.30;11.80;;;8.00;99.90;;;8.74;100.00;97383.69;4982228;28;20466;-80
2024/03/04 07:32:29;;;;;;;20.77;9.80;;;8.00;99.90;;;8.75;100.00;97377.47;4983134;28;20461;-79
2024/03/04 07:34:59;;;;;;;21.47;9.73;;;8.00;99.90;;;8.77;100.00;97382.50;4982899;28;20506;-79
2024/03/04 07:37:27;;;;;;;22.63;10.95;;;8.10;99.90;;;8.78;100.00;97382.28;4984627;28;20462;-80
2024/03/04 07:39:56;;;;;;;21.87;10.43;;;8.10;99.90;;;8.84;100.00;97385.97;4985156;28;20204;-79
2024/03/04 07:42:25;;;;;;;24.00;11.80;;;8.10;99.90;;;8.89;100.00;97388.78;4983232;28;20530;-80
2024/03/04 07:44:53;;;;;;;17.53;10.47;;;8.10;99.90;;;8.91;100.00;97394.63;4982568;28;20467;-80
2024/03/04 07:47:22;;;;;;;20.80;11.17;;;8.10;99.90;;;8.89;100.00;97391.38;4982175;28;20790;-79
2024/03/04 07:49:50;;;;;;;17.93;10.00;;;8.10;99.90;;;8.90;100.00;97400.81;4983759;28;20461;-79
2024/03/04 07:52:20;;;;;;;17.70;10.47;;;8.10;99.90;;;8.94;100.00;97404.66;4982759;28;20478;-79
2024/03/04 07:54:49;;;;;;;22.43;10.83;;;8.10;99.90;;;8.92;100.00;97410.06;4980561;28;21175;-79
2024/03/04 07:57:17;;;;;;;19.97;11.23;;;8.10;99.90;;;8.94;100.00;97417.69;4981626;28;21028;-79
2024/03/04 07:59:51;;;;;;;18.97;10.97;;;8.10;99.90;;;8.92;100.00;97423.09;4981543;28;20964;-79
2024/03/04 08:02:20;;;;;;;26.40;12.70;;;8.20;99.90;;;8.91;100.00;97428.50;4983827;28;20545;-80
2024/03/04 08:04:49;;;;;;;21.23;11.32;;;8.20;99.90;;;8.92;100.00;97437.94;4983061;28;21033;-83
2024/03/04 08:07:17;;;;;;;28.87;14.60;;;8.20;99.90;;;8.92;100.00;97432.75;4977766;28;20576;-79
2024/03/04 08:09:47;;;;;;;20.80;11.27;;;8.20;99.90;;;8.96;100.00;97442.56;4983255;28;20471;-79
2024/03/04 08:12:16;;;;;;;21.00;11.40;;;8.20;99.90;;;8.98;100.00;97434.56;4981679;28;20474;-80
2024/03/04 08:14:45;;;;;;;24.73;12.00;;;8.20;99.90;;;8.99;100.00;97436.16;4982283;28;20503;-79
2024/03/04 08:17:16;;;;;;;23.73;11.23;;;8.20;99.90;;;9.01;100.00;97447.22;4984882;28;20486;-79
2024/03/04 08:19:44;;;;;;;22.23;12.10;;;8.20;99.90;;;9.01;100.00;97449.84;4986794;28;20470;-79
2024/03/04 08:22:13;;;;;;;21.53;11.17;;;8.30;99.90;;;9.04;100.00;97446.84;4985433;28;20467;-79
2024/03/04 08:24:42;;;;;;;24.33;11.80;;;8.30;99.90;;;9.05;100.00;97451.88;4987522;28;20471;-79
2024/03/04 08:27:12;;;;;;;22.42;12.05;;;8.20;99.90;;;9.04;100.00;97452.06;4982416;28;20481;-79
2024/03/04 08:29:41;;;;;;;21.87;11.50;;;8.20;99.90;;;9.04;100.00;97459.88;4981109;28;20208;-79
2024/03/04 08:32:09;;;;;;;20.53;10.60;;;8.30;99.90;;;9.05;100.00;97459.69;4980822;28;20495;-80
2024/03/04 08:34:37;;;;;;;23.60;11.63;;;8.20;99.90;;;9.03;100.00;97450.44;4981189;28;20492;-79
2024/03/04 08:37:06;;;;;;;31.83;13.30;;;8.30;99.90;;;8.97;100.00;97456.41;4981760;28;21035;-80
2024/03/04 08:39:35;;;;;;;29.63;12.10;;;8.30;99.90;;;8.97;100.00;97459.03;4980947;28;21053;-79
2024/03/04 08:42:04;;;;;;;24.13;11.53;;;8.30;99.90;;;9.03;100.00;97456.47;4980696;28;20491;-79
2024/03/04 08:44:34;;;;;;;24.15;12.50;;;8.20;99.90;;;9.07;100.00;97464.69;4981080;28;20494;-79
2024/03/04 08:47:02;;;;;;;22.80;12.27;;;8.30;99.90;;;9.12;100.00;97461.53;4981972;28;20209;-79
2024/03/04 08:49:31;;;;;;;27.27;12.97;;;8.30;99.90;;;9.14;100.00;97456.91;4981267;28;20606;-79
2024/03/04 08:52:01;;;;;;;25.37;11.63;;;8.30;99.90;;;9.14;100.00;97459.53;4981388;28;20553;-79
2024/03/04 08:54:31;;;;;;;23.98;12.10;;;8.30;99.90;;;9.03;100.00;97463.47;4981334;28;20463;-78
2024/03/04 08:57:00;;;;;;;22.93;11.87;;;8.20;99.90;;;9.03;100.00;97460.88;4981157;28;20459;-79
2024/03/04 08:59:28;;;;;;;31.30;13.40;;;8.20;99.90;;;9.08;100.00;97458.50;4980736;28;20514;-78
2024/03/04 09:01:58;;;;;;;24.92;13.30;;;8.30;99.90;;;9.10;100.00;97457.31;4979521;28;20218;-79
2024/03/04 09:04:26;;;;;;;32.33;17.70;;;8.30;99.90;;;9.11;100.00;97463.31;4977562;28;20210;-85
2024/03/04 09:06:55;;;;;;;171.52;72.60;;;8.30;99.90;;;9.13;100.00;97460.53;4975952;28;20457;-78
2024/03/04 09:09:25;;;;;;;34.00;14.10;;;8.40;99.90;;;9.13;100.00;97463.94;4975297;28;20677;-78
2024/03/04 09:11:53;;;;;;;25.17;12.43;;;8.30;99.90;;;9.17;100.00;97467.78;4973352;28;20471;-78
2024/03/04 09:14:22;;;;;;;24.50;12.50;;;8.40;99.90;;;9.21;100.00;97471.59;4976186;28;20479;-78
2024/03/04 09:16:52;;;;;;;21.93;10.70;;;8.40;99.90;;;9.19;100.00;97476.22;4974354;28;20511;-77
2024/03/04 09:19:21;;;;;;;19.27;10.70;;;8.50;99.90;;;9.16;100.00;97481.84;4972342;28;20497;-78
2024/03/04 09:21:50;;;;;;;24.08;10.48;;;8.50;99.90;;;9.21;100.00;97484.66;4977032;28;21071;-78
2024/03/04 09:24:18;;;;;;;23.30;11.10;;;8.40;99.90;;;9.21;100.00;97471.59;4975897;28;20220;-78
2024/03/04 09:26:47;;;;;;;22.03;9.90;;;8.50;99.90;;;9.26;100.00;97478.88;4976998;28;20744;-78
2024/03/04 09:29:15;;;;;;;21.87;10.60;;;8.60;99.90;;;9.26;100.00;97479.69;4978143;28;21164;-78
2024/03/04 09:31:44;;;;;;;20.97;11.17;;;8.50;99.90;;;9.27;100.00;97489.09;4976434;28;20476;-78
2024/03/04 09:34:13;;;;;;;17.80;10.33;;;8.60;99.90;;;9.27;100.00;97486.50;4973365;28;20980;-79
2024/03/04 09:36:43;;;;;;;20.13;10.43;;;8.60;99.90;;;9.27;100.00;97486.50;4976972;28;20522;-79
2024/03/04 09:39:12;;;;;;;27.17;11.13;;;8.60;99.90;;;9.29;100.00;97481.91;4978343;28;20467;-79
2024/03/04 09:41:42;;;;;;;18.40;10.07;;;8.60;99.90;;;9.27;100.00;97502.13;4975179;28;20526;-78
2024/03/04 09:44:10;;;;;;;18.83;9.70;;;8.60;99.90;;;9.26;100.00;97491.91;4976687;28;20575;-79
2024/03/04 09:46:40;;;;;;;19.33;10.10;;;8.70;99.90;;;9.30;100.00;97491.31;4973493;28;20472;-79
2024/03/04 09:49:12;;;;;;;26.50;10.43;;;8.60;99.90;;;9.22;100.00;97491.50;4976467;28;20474;-79
2024/03/04 09:51:45;;;;;;;21.40;10.50;;;8.60;99.90;;;9.19;100.00;97485.84;4976039;28;20483;-79
2024/03/04 09:54:15;;;;;;;23.35;9.98;;;8.60;99.90;;;9.18;100.00;97490.25;4978937;28;20467;-79
2024/03/04 09:56:44;;;;;;;20.83;10.73;;;8.50;99.90;;;9.26;100.00;97490.13;4978029;28;20256;-79
2024/03/04 09:59:13;;;;;;;20.07;10.10;;;8.50;99.90;;;9.29;100.00;97491.53;4979184;28;20467;-79
2024/03/04 10:01:42;;;;;;;19.50;9.70;;;8.60;99.90;;;9.31;100.00;97495.53;4978518;28;20463;-79
2024/03/04 10:04:12;;;;;;;20.33;10.37;;;8.60;99.90;;;9.28;100.00;97500.34;4979644;28;20460;-79
2024/03/04 10:06:42;;;;;;;17.33;9.50;;;8.60;99.90;;;9.29;100.00;97494.94;4978234;28;21419;-78
2024/03/04 10:09:12;;;;;;;20.60;10.50;;;8.70;99.90;;;9.30;100.00;97493.94;4985004;28;20525;-79
2024/03/04 10:11:41;;;;;;;19.77;9.70;;;8.70;99.90;;;9.27;100.00;97496.91;4977554;28;20462;-78
2024/03/04 10:14:10;;;;;;;17.10;9.10;;;8.70;99.90;;;9.35;100.00;97502.00;4978251;28;20502;-79
2024/03/04 10:16:38;;;;;;;18.90;9.13;;;8.70;99.90;;;9.28;100.00;97495.94;4977091;28;20570;-79
2024/03/04 10:19:07;;;;;;;20.30;9.32;;;8.70;99.90;;;9.34;100.00;97504.78;4980081;28;20957;-79
2024/03/04 10:21:36;;;;;;;23.43;8.90;;;8.70;99.90;;;9.36;100.00;97508.84;4980446;28;20683;-79
2024/03/04 10:24:11;;;;;;;18.27;9.47;;;8.70;99.90;;;9.37;100.00;97507.81;4977310;28;20475;-83